Time;durP1;ratioP1;P1;durP2;ratioP2;P2;SDS_P1;SDS_P2;PMS_P1;PMS_P2;Temp;Humidity;BMP_temperature;BMP_pressure;BME280_temperature;BME280_humidity;BME280_pressure;Samples;Min_cycle;Max_cycle;Signal;HPM_P1;HPM_P2
2022/11/21 00:08:25;;;;;;;20.90;10.55;;;0.90;99.90;;;;;;21256049;22;20019;-57
2022/11/21 00:18:34;;;;;;;26.35;12.73;;;0.50;99.90;;;;;;21223886;22;20060;31
2022/11/21 00:28:38;;;;;;;24.43;12.37;;;0.30;99.90;;;;;;20980073;22;20061;-55
2022/11/21 00:38:40;;;;;;;18.95;9.70;;;0.00;99.90;;;;;;21025702;22;20037;-55
2022/11/21 00:48:43;;;;;;;19.35;9.38;;;-0.20;99.90;;;;;;21023370;22;20087;-55
2022/11/21 00:58:45;;;;;;;20.52;11.23;;;-0.40;99.90;;;;;;21023836;22;20045;-57
2022/11/21 01:08:48;;;;;;;24.55;11.73;;;-0.60;99.90;;;;;;21022761;22;20047;-51
2022/11/21 01:18:58;;;;;;;26.75;13.75;;;-0.50;99.90;;;;;;20999387;22;20116;-55
2022/11/21 01:29:01;;;;;;;40.13;17.77;;;-0.70;99.90;;;;;;20978306;22;20057;-56
2022/11/21 01:39:06;;;;;;;42.97;19.77;;;-0.90;99.90;;;;;;21019182;22;20592;-52
2022/11/21 01:49:12;;;;;;;39.38;17.98;;;-1.10;99.90;;;;;;20996408;22;20091;-59
2022/11/21 01:59:29;;;;;;;25.80;12.23;;;-1.20;99.90;;;;;;21018792;22;20072;-56
2022/11/21 02:09:35;;;;;;;8.38;4.97;;;-1.10;99.90;;;;;;20991735;22;20053;-55
2022/11/21 02:19:57;;;;;;;5.38;2.55;;;-1.20;99.90;;;;;;21013592;22;20051;-55
2022/11/21 02:30:06;;;;;;;2.47;1.33;;;-0.80;99.90;;;;;;21016323;22;20051;-58
2022/11/21 02:40:17;;;;;;;2.15;1.00;;;0.20;99.90;;;;;;21017558;22;20099;-55
2022/11/21 02:50:35;;;;;;;5.20;2.15;;;0.10;99.90;;;;;;20965587;22;20115;-52
2022/11/21 03:00:40;;;;;;;3.83;1.73;;;0.10;99.90;;;;;;20992252;22;20122;-56
2022/11/21 03:10:42;;;;;;;1.90;1.00;;;0.70;99.90;;;;;;21022712;22;20107;-56
2022/11/21 03:20:44;;;;;;;1.02;0.50;;;1.10;99.90;;;;;;21028916;22;20049;-55
2022/11/21 03:30:47;;;;;;;1.00;0.35;;;1.50;99.90;;;;;;21028960;22;20112;-58
2022/11/21 03:40:50;;;;;;;0.80;0.40;;;2.20;99.90;;;;;;21027735;22;20786;-51
2022/11/21 03:50:59;;;;;;;0.68;0.30;;;2.20;99.90;;;;;;21021411;22;20061;31
2022/11/21 04:01:01;;;;;;;0.30;0.20;;;2.30;99.90;;;;;;20991130;22;20324;-59
2022/11/21 04:11:05;;;;;;;0.30;0.20;;;2.10;99.90;;;;;;21004296;22;20568;-53
2022/11/21 04:21:08;;;;;;;0.25;0.10;;;1.90;99.90;;;;;;21012989;22;20576;-59
2022/11/21 04:31:10;;;;;;;0.30;0.20;;;1.90;99.90;;;;;;21024772;22;20115;-55
2022/11/21 04:41:13;;;;;;;0.95;0.20;;;2.10;99.90;;;;;;21021921;22;20049;-58
2022/11/21 04:51:17;;;;;;;0.25;0.10;;;1.20;99.90;;;;;;21019707;22;20503;31
2022/11/21 05:01:19;;;;;;;0.35;0.13;;;0.70;99.90;;;;;;20966712;22;20465;-53
2022/11/21 05:21:43;;;;;;;0.52;0.00;;;-0.10;99.90;;;;;;21880870;22;20608;-57
2022/11/21 05:31:46;;;;;;;0.10;0.00;;;-0.50;99.90;;;;;;21861812;22;20053;-55
2022/11/21 05:41:48;;;;;;;0.10;0.10;;;-0.50;99.90;;;;;;20994336;22;20103;-56
2022/11/21 05:51:51;;;;;;;0.25;0.10;;;-0.60;99.90;;;;;;21033985;22;20045;-54
2022/11/21 06:12:47;;;;;;;0.10;0.00;;;0.10;99.90;;;;;;21022508;22;20106;-57
2022/11/21 06:22:56;;;;;;;0.30;0.10;;;0.80;99.90;;;;;;20983398;22;20057;31
2022/11/21 06:32:58;;;;;;;0.30;0.00;;;0.60;99.90;;;;;;20972821;22;20128;-59
2022/11/21 06:43:01;;;;;;;0.10;0.00;;;0.80;98.70;;;;;;21003029;22;20050;-57
2022/11/21 06:53:04;;;;;;;0.00;0.00;;;2.00;95.80;;;;;;21008648;22;20084;-59
2022/11/21 07:03:07;;;;;;;0.10;0.00;;;2.90;93.00;;;;;;21009217;22;20041;-59
2022/11/21 07:24:02;;;;;;;1.60;0.00;;;4.00;89.70;;;;;;21341015;23;20125;-59
2022/11/21 07:34:04;;;;;;;0.10;0.00;;;4.40;88.40;;;;;;20269135;23;20062;-57
2022/11/21 07:44:07;;;;;;;0.52;0.00;;;4.80;83.70;;;;;;20203560;23;1502911;-57
2022/11/21 07:54:09;;;;;;;1.05;0.00;;;5.40;79.30;;;;;;20248450;23;20360;-62
2022/11/21 08:04:12;;;;;;;0.00;0.00;;;6.00;80.40;;;;;;20307112;23;20061;-57
2022/11/21 08:14:15;;;;;;;0.60;0.40;;;6.50;80.60;;;;;;20284851;23;20053;-58
2022/11/21 08:24:17;;;;;;;2.80;1.48;;;7.00;87.20;;;;;;20251939;23;20061;-59
2022/11/21 08:34:20;;;;;;;2.17;1.10;;;7.00;90.10;;;;;;20282160;23;20061;-58
2022/11/21 08:44:33;;;;;;;2.33;1.52;;;7.00;89.00;;;;;;20125742;23;20065;-59
2022/11/21 08:54:36;;;;;;;1.80;0.82;;;7.30;87.60;;;;;;20221351;23;20117;-58
2022/11/21 09:04:38;;;;;;;3.60;1.98;;;7.50;87.20;;;;;;20234190;23;20058;-58
2022/11/21 09:25:02;;;;;;;;;;;8.10;85.70;;;;;;20213817;23;20058;-57
2022/11/21 09:35:05;;;;;;;0.65;0.30;;;7.80;86.30;;;;;;20183022;23;19954;-58
2022/11/21 09:45:14;;;;;;;0.35;0.20;;;7.80;84.40;;;;;;20212618;23;20046;-61
2022/11/21 09:55:54;;;;;;;0.25;0.00;;;8.80;79.90;;;;;;20190616;23;20065;-63
2022/11/21 10:06:00;;;;;;;0.30;0.10;;;9.20;79.00;;;;;;20226207;23;20046;-63
2022/11/21 10:16:43;;;;;;;0.95;0.30;;;9.40;73.80;;;;;;20173290;23;20054;-57
2022/11/21 10:26:57;;;;;;;1.70;1.20;;;9.70;76.50;;;;;;20216853;23;20041;-59
2022/11/21 10:37:36;;;;;;;0.00;0.00;;;9.70;82.40;;;;;;20255662;23;20102;31
2022/11/21 10:47:39;;;;;;;5.05;3.65;;;9.90;69.20;;;;;;20279027;23;20130;-57
2022/11/21 10:57:53;;;;;;;2.55;0.70;;;9.80;86.90;;;;;;20192782;23;20065;-57
2022/11/21 11:18:22;;;;;;;2.20;1.08;;;10.00;87.70;;;;;;20228138;23;20118;-56
2022/11/21 11:28:34;;;;;;;7.47;4.32;;;10.10;75.00;;;;;;20263808;23;20061;-64
2022/11/21 11:38:36;;;;;;;0.40;0.30;;;9.90;86.90;;;;;;20286673;23;20084;-57
2022/11/21 11:48:42;;;;;;;0.40;0.20;;;10.20;81.10;;;;;;20220498;23;20050;-58
2022/11/21 11:58:59;;;;;;;1.52;0.73;;;9.80;70.40;;;;;;20245410;23;20054;-58
2022/11/21 12:09:26;;;;;;;0.25;0.10;;;9.80;77.10;;;;;;20223791;23;20026;-63
2022/11/21 12:19:29;;;;;;;0.43;0.10;;;10.10;69.40;;;;;;20278223;23;21633;-55
2022/11/21 12:29:41;;;;;;;0.55;0.20;;;10.10;69.60;;;;;;20261467;23;20568;31
2022/11/21 12:40:01;;;;;;;0.10;0.10;;;10.40;71.60;;;;;;20236431;23;20086;-63
2022/11/21 13:00:58;;;;;;;0.30;0.20;;;10.40;71.30;;;;;;20220945;23;20549;31
2022/11/21 13:21:42;;;;;;;3.33;2.10;;;10.30;72.50;;;;;;20165199;23;20066;-59
2022/11/21 13:31:46;;;;;;;1.25;0.22;;;9.60;80.40;;;;;;20149799;23;20061;-58
2022/11/21 13:53:14;;;;;;;4.47;2.58;;;9.00;77.20;;;;;;20236284;23;20097;31
2022/11/21 14:03:48;;;;;;;8.50;4.38;;;8.00;84.20;;;;;;20209127;23;20559;31
2022/11/21 14:13:50;;;;;;;9.82;6.20;;;6.40;92.50;;;;;;20224232;23;20041;-63
2022/11/21 14:24:16;;;;;;;10.07;6.82;;;5.70;96.70;;;;;;20194087;23;20424;-63
2022/11/21 14:34:32;;;;;;;20.75;13.88;;;4.90;98.80;;;;;;20112328;23;20058;-58
2022/11/21 14:44:35;;;;;;;20.13;12.57;;;4.30;99.90;;;;;;20173480;23;20062;-63
2022/11/21 14:54:51;;;;;;;12.88;7.65;;;3.50;99.90;;;;;;20260346;23;20050;-59
2022/11/21 15:05:00;;;;;;;8.57;5.13;;;3.40;99.90;;;;;;20283851;23;20512;-64
2022/11/21 15:15:18;;;;;;;14.63;8.35;;;3.40;99.90;;;;;;20194825;23;20061;-59
2022/11/21 15:25:27;;;;;;;16.15;9.98;;;3.30;99.90;;;;;;20243838;23;20058;-57
2022/11/21 15:35:50;;;;;;;15.07;9.55;;;3.10;99.90;;;;;;20261824;23;20419;-59
2022/11/21 15:46:01;;;;;;;11.68;6.93;;;2.70;99.90;;;;;;20304147;23;20046;-56
2022/11/21 15:56:04;;;;;;;;;;;2.50;99.90;;;;;;20268758;23;20125;-58
2022/11/21 16:16:45;;;;;;;2.65;1.70;;;2.40;99.90;;;;;;21609651;23;20090;-57
2022/11/21 16:27:21;;;;;;;2.83;1.45;;;2.30;99.90;;;;;;20127360;23;20505;-56
2022/11/21 16:37:25;;;;;;;4.32;1.80;;;2.40;99.90;;;;;;20195158;23;20058;-57
2022/11/21 16:47:28;;;;;;;3.30;1.90;;;2.40;99.90;;;;;;20137554;23;1370364;-63
2022/11/21 16:57:32;;;;;;;2.20;1.30;;;2.50;98.80;;;;;;20170497;23;20050;-57
2022/11/21 17:07:35;;;;;;;0.95;0.20;;;2.50;99.30;;;;;;20276274;23;20053;-58
2022/11/21 17:17:39;;;;;;;1.50;0.57;;;2.90;99.90;;;;;;20285698;23;20519;-59
2022/11/21 17:27:43;;;;;;;1.55;0.75;;;3.00;99.90;;;;;;20277522;23;20058;-55
2022/11/21 17:37:52;;;;;;;2.45;1.15;;;2.80;99.90;;;;;;20234138;23;20061;31
2022/11/21 17:47:55;;;;;;;2.10;0.95;;;3.00;99.90;;;;;;20219385;23;20123;-59
2022/11/21 17:57:57;;;;;;;1.02;0.60;;;3.20;99.90;;;;;;20269007;23;20470;-57
2022/11/21 18:08:00;;;;;;;2.38;0.40;;;3.40;99.90;;;;;;20215690;23;20058;-57
2022/11/21 18:18:02;;;;;;;1.65;0.57;;;4.20;99.90;;;;;;20273332;23;20106;-57
2022/11/21 18:28:06;;;;;;;4.20;1.55;;;4.60;99.90;;;;;;20276157;23;21588;-57
2022/11/21 18:38:14;;;;;;;3.30;1.80;;;4.40;99.90;;;;;;20176001;23;20054;31
2022/11/21 18:48:17;;;;;;;3.08;1.90;;;4.10;99.90;;;;;;20215679;23;20093;-57
2022/11/21 18:58:20;;;;;;;2.55;1.30;;;4.00;99.90;;;;;;20293846;23;20053;-58
2022/11/21 19:08:23;;;;;;;3.55;1.50;;;3.90;99.90;;;;;;21024800;23;20046;-58
2022/11/21 19:18:31;;;;;;;2.08;1.30;;;3.90;99.90;;;;;;20285806;23;20054;-57
2022/11/21 19:28:35;;;;;;;3.83;2.00;;;3.80;99.90;;;;;;20271189;23;20125;-57
2022/11/21 19:38:41;;;;;;;6.47;2.30;;;3.80;99.90;;;;;;20232365;23;20065;31
2022/11/21 19:59:12;;;;;;;4.18;2.13;;;3.60;99.90;;;;;;20172795;23;20054;-58
2022/11/21 20:09:17;;;;;;;4.07;2.53;;;3.30;99.90;;;;;;20271162;23;20061;-58
2022/11/21 20:19:23;;;;;;;5.28;2.33;;;2.90;99.90;;;;;;20219997;23;20109;-54
2022/11/21 20:29:27;;;;;;;3.38;1.70;;;2.30;99.90;;;;;;20277023;23;20460;-59
2022/11/21 20:39:31;;;;;;;6.03;1.80;;;1.90;99.90;;;;;;20233154;23;20045;-56
2022/11/21 20:49:34;;;;;;;6.78;1.40;;;2.00;99.90;;;;;;20280214;23;20075;-66
2022/11/21 20:59:36;;;;;;;1.30;0.90;;;2.10;99.90;;;;;;20257815;23;20377;-60
2022/11/21 21:09:56;;;;;;;2.42;1.08;;;2.20;99.90;;;;;;20176841;23;20062;-57
2022/11/21 21:19:58;;;;;;;2.75;1.20;;;2.30;99.90;;;;;;20211645;23;20499;-56
2022/11/21 21:30:03;;;;;;;2.50;1.35;;;2.20;99.90;;;;;;20241617;23;20396;-59
2022/11/21 21:40:07;;;;;;;2.92;1.58;;;2.10;99.90;;;;;;20241610;23;20122;-57
2022/11/21 21:50:09;;;;;;;4.30;1.42;;;2.00;99.90;;;;;;20238491;23;20066;-58
2022/11/21 22:00:15;;;;;;;4.50;1.83;;;2.00;99.90;;;;;;20170147;23;20054;31
2022/11/21 22:10:19;;;;;;;6.28;3.45;;;2.10;99.90;;;;;;20215457;23;20054;-56
2022/11/21 22:20:21;;;;;;;9.98;4.10;;;2.10;99.90;;;;;;20269810;23;20620;-60
2022/11/21 22:30:25;;;;;;;7.63;4.45;;;2.00;99.90;;;;;;20256771;23;20500;-53
2022/11/21 22:40:27;;;;;;;6.57;3.72;;;2.00;99.90;;;;;;20273914;23;20114;-57
2022/11/21 22:50:31;;;;;;;6.20;3.60;;;1.90;99.90;;;;;;20261260;23;20070;-54
2022/11/21 23:00:36;;;;;;;2.22;1.38;;;1.80;99.90;;;;;;20210743;23;20474;31
2022/11/21 23:10:39;;;;;;;2.25;1.20;;;1.90;99.90;;;;;;20187875;23;20049;-60
2022/11/21 23:20:43;;;;;;;0.75;0.32;;;1.90;99.90;;;;;;20266410;23;20062;-57
2022/11/21 23:30:48;;;;;;;0.57;0.20;;;2.00;99.90;;;;;;20259458;23;20058;-60
2022/11/21 23:40:50;;;;;;;0.70;0.35;;;2.10;99.90;;;;;;20238016;23;20122;-54
2022/11/21 23:50:54;;;;;;;0.85;0.40;;;2.10;99.90;;;;;;20233294;23;20065;-50
